createdAt,value
2022-09-13T00:02:03.772Z,8.35
2022-09-13T00:04:30.368Z,3.65
2022-09-13T00:06:56.958Z,4.18
2022-09-13T00:09:23.558Z,7.57
2022-09-13T00:11:51.753Z,3.80
2022-09-13T00:14:19.733Z,5.50
2022-09-13T00:16:46.362Z,5.50
2022-09-13T00:19:13.007Z,3.92
2022-09-13T00:24:23.923Z,8.05
2022-09-13T00:26:50.550Z,6.70
2022-09-13T00:29:17.161Z,5.07
2022-09-13T00:31:51.026Z,6.93
2022-09-13T00:34:17.741Z,6.15
2022-09-13T00:36:44.364Z,4.30
2022-09-13T00:39:11.027Z,3.43
2022-09-13T00:41:38.488Z,5.97
2022-09-13T00:44:05.066Z,7.25
2022-09-13T00:46:37.770Z,5.78
2022-09-13T00:49:14.579Z,4.70
2022-09-13T00:51:44.652Z,3.90
2022-09-13T00:54:13.563Z,3.70
2022-09-13T00:56:43.826Z,4.00
2022-09-13T01:02:01.244Z,6.20
2022-09-13T01:04:32.059Z,8.68
2022-09-13T01:07:02.288Z,4.20
2022-09-13T01:09:31.615Z,5.55
2022-09-13T01:12:04.709Z,5.22
2022-09-13T01:14:32.800Z,7.30
2022-09-13T01:17:00.408Z,4.80
2022-09-13T01:19:27.789Z,5.00
2022-09-13T01:22:39.596Z,2.80
2022-09-13T01:25:35.090Z,3.83
2022-09-13T01:28:17.893Z,5.18
2022-09-13T01:30:53.938Z,4.50
2022-09-13T01:33:32.874Z,6.88
2022-09-13T01:36:21.041Z,3.13
2022-09-13T01:38:56.869Z,4.10
2022-09-13T01:42:04.600Z,3.95
2022-09-13T01:44:44.119Z,3.00
2022-09-13T01:47:23.118Z,5.80
2022-09-13T01:49:59.435Z,3.80
2022-09-13T01:52:34.761Z,3.63
2022-09-13T01:55:06.272Z,2.92
2022-09-13T01:57:36.109Z,5.78
2022-09-13T02:00:06.782Z,6.93
2022-09-13T02:02:39.892Z,4.13
2022-09-13T02:05:12.857Z,5.00
2022-09-13T02:07:42.400Z,2.50
2022-09-13T02:10:16.417Z,3.20
2022-09-13T02:12:45.478Z,3.88
2022-09-13T02:15:16.308Z,3.13
2022-09-13T02:17:48.562Z,2.90
2022-09-13T02:20:20.966Z,3.67
2022-09-13T02:22:52.936Z,15.18
2022-09-13T02:25:22.609Z,3.13
2022-09-13T02:27:53.470Z,3.55
2022-09-13T02:30:20.593Z,3.65
2022-09-13T02:32:53.896Z,6.10
2022-09-13T02:35:25.822Z,3.45
2022-09-13T02:38:05.402Z,4.20
2022-09-13T02:40:37.729Z,3.05
2022-09-13T02:43:08.970Z,3.22
2022-09-13T02:45:45.758Z,3.10
2022-09-13T02:48:22.466Z,3.42
2022-09-13T02:50:59.889Z,4.10
2022-09-13T02:53:35.001Z,7.32
2022-09-13T02:56:10.949Z,4.28
2022-09-13T02:58:46.760Z,4.05
2022-09-13T03:01:14.391Z,4.05
2022-09-13T03:03:42.430Z,6.05
2022-09-13T03:06:09.168Z,5.28
2022-09-13T03:08:36.683Z,6.35
2022-09-13T03:11:12.074Z,4.55
2022-09-13T03:13:56.777Z,11.32
2022-09-13T03:16:36.876Z,5.07
2022-09-13T03:19:21.223Z,10.25
2022-09-13T03:22:04.371Z,7.55
2022-09-13T03:24:45.938Z,5.70
2022-09-13T03:27:21.599Z,7.82
2022-09-13T03:29:56.382Z,8.88
2022-09-13T03:32:31.484Z,4.97
2022-09-13T03:35:07.455Z,7.45
2022-09-13T03:37:41.509Z,4.90
2022-09-13T03:40:12.866Z,5.28
2022-09-13T03:42:45.474Z,5.22
2022-09-13T03:45:14.820Z,7.15
2022-09-13T03:47:44.574Z,3.35
2022-09-13T03:50:18.607Z,5.07
2022-09-13T03:52:47.110Z,3.47
2022-09-13T03:55:13.953Z,3.95
2022-09-13T03:57:40.563Z,4.78
2022-09-13T04:00:08.268Z,5.13
2022-09-13T04:02:34.895Z,5.07
2022-09-13T04:05:01.506Z,3.25
2022-09-13T04:07:29.480Z,4.72
2022-09-13T04:09:56.053Z,5.28
2022-09-13T04:12:22.659Z,3.33
2022-09-13T04:14:49.289Z,7.80
2022-09-13T04:17:15.891Z,4.32
2022-09-13T04:19:42.655Z,3.92
2022-09-13T04:22:09.223Z,5.53
2022-09-13T04:24:37.211Z,5.80
2022-09-13T04:27:04.140Z,3.53
2022-09-13T04:29:30.729Z,6.57
2022-09-13T04:31:57.487Z,4.15
2022-09-13T04:34:24.166Z,4.18
2022-09-13T04:36:51.611Z,5.97
2022-09-13T04:39:18.556Z,3.60
2022-09-13T04:41:47.868Z,6.18
2022-09-13T04:44:15.861Z,7.57
2022-09-13T04:46:43.215Z,9.07
2022-09-13T04:49:10.323Z,11.73
2022-09-13T04:51:36.899Z,4.45
2022-09-13T04:54:03.625Z,11.52
2022-09-13T04:56:30.220Z,3.70
2022-09-13T04:58:58.213Z,6.07
2022-09-13T05:01:27.904Z,6.75
2022-09-13T05:03:54.821Z,7.10
2022-09-13T05:06:22.329Z,5.65
2022-09-13T05:08:50.944Z,3.40
2022-09-13T05:11:17.697Z,9.87
2022-09-13T05:13:44.311Z,6.40
2022-09-13T05:16:12.293Z,5.22
2022-09-13T05:18:42.032Z,3.58
2022-09-13T05:21:11.603Z,3.75
2022-09-13T05:23:38.202Z,3.03
2022-09-13T05:26:06.355Z,3.00
2022-09-13T05:28:34.970Z,7.82
2022-09-13T05:31:03.013Z,4.70
2022-09-13T05:33:32.765Z,6.53
2022-09-13T05:35:59.642Z,7.60
2022-09-13T05:38:26.322Z,3.00
2022-09-13T05:40:54.836Z,3.25
2022-09-13T05:43:21.439Z,3.57
2022-09-13T05:45:48.071Z,4.05
2022-09-13T05:48:14.750Z,7.70
2022-09-13T05:50:57.766Z,5.65
2022-09-13T05:53:25.260Z,8.27
2022-09-13T05:55:51.826Z,6.90
2022-09-13T05:58:18.415Z,22.15
2022-09-13T06:00:45.018Z,8.60
2022-09-13T06:03:11.602Z,7.43
2022-09-13T06:05:38.181Z,15.02
2022-09-13T06:08:06.146Z,3.28
2022-09-13T06:10:32.712Z,6.18
2022-09-13T06:12:59.299Z,10.63
2022-09-13T06:15:25.944Z,5.05
2022-09-13T06:17:52.535Z,6.65
2022-09-13T06:20:19.108Z,10.80
2022-09-13T06:22:47.596Z,14.10
2022-09-13T06:25:15.803Z,8.82
2022-09-13T06:27:42.472Z,5.28
2022-09-13T06:30:09.664Z,4.90
2022-09-13T06:32:36.246Z,7.43
2022-09-13T06:35:02.826Z,10.45
2022-09-13T06:37:29.465Z,3.92
2022-09-13T06:39:56.088Z,7.80
2022-09-13T06:42:24.061Z,8.55
2022-09-13T06:44:50.674Z,6.80
2022-09-13T06:47:17.234Z,5.63
2022-09-13T06:49:43.836Z,4.60
2022-09-13T06:52:10.614Z,9.63
2022-09-13T06:54:37.171Z,16.70
2022-09-13T06:57:04.001Z,5.75
2022-09-13T06:59:32.029Z,5.82
2022-09-13T07:01:58.653Z,7.82
2022-09-13T07:04:25.297Z,9.05
2022-09-13T07:06:51.952Z,6.28
2022-09-13T07:09:20.069Z,13.18
2022-09-13T07:11:47.607Z,7.25
2022-09-13T07:14:15.521Z,8.15
2022-09-13T07:16:43.680Z,7.22
2022-09-13T07:19:14.030Z,8.82
2022-09-13T07:21:40.665Z,6.65
2022-09-13T07:24:07.424Z,7.45
2022-09-13T07:26:34.268Z,5.45
2022-09-13T07:29:03.010Z,7.57
2022-09-13T07:31:31.287Z,9.20
2022-09-13T07:34:00.601Z,5.53
2022-09-13T07:36:28.635Z,11.32
2022-09-13T07:38:55.583Z,19.13
2022-09-13T07:41:25.297Z,5.45
2022-09-13T07:43:52.422Z,5.97
2022-09-13T07:46:20.303Z,7.75
2022-09-13T07:48:47.750Z,5.32
2022-09-13T07:51:17.849Z,11.35
2022-09-13T07:53:45.762Z,5.07
2022-09-13T07:56:13.705Z,5.55
2022-09-13T07:58:42.312Z,4.30
2022-09-13T08:01:13.217Z,3.42
2022-09-13T08:03:40.279Z,6.35
2022-09-13T08:06:08.104Z,6.63
2022-09-13T08:08:37.269Z,5.20
2022-09-13T08:11:05.666Z,4.38
2022-09-13T08:13:32.549Z,5.20
2022-09-13T08:16:01.865Z,1.80
2022-09-13T08:20:56.354Z,4.03
2022-09-13T08:23:22.988Z,5.07
2022-09-13T08:25:51.068Z,2.25
2022-09-13T08:28:23.280Z,5.35
2022-09-13T08:30:52.211Z,4.70
2022-09-13T08:33:18.897Z,2.20
2022-09-13T08:35:50.771Z,3.67
2022-09-13T08:38:17.443Z,4.18
2022-09-13T08:40:49.601Z,2.10
2022-09-13T08:43:23.852Z,2.88
2022-09-13T08:45:51.494Z,2.20
2022-09-13T08:48:23.304Z,4.75
2022-09-13T08:51:04.233Z,1.77
2022-09-13T08:53:32.570Z,2.40
2022-09-13T08:56:06.459Z,5.10
2022-09-13T08:58:52.727Z,2.67
2022-09-13T09:01:38.150Z,5.35
2022-09-13T09:04:13.988Z,5.20
2022-09-13T09:06:41.616Z,2.15
2022-09-13T09:09:14.658Z,1.80
2022-09-13T09:11:48.872Z,11.65
2022-09-13T09:14:22.821Z,8.57
2022-09-13T09:16:55.407Z,3.20
2022-09-13T09:19:25.117Z,1.70
2022-09-13T09:21:51.892Z,2.67
2022-09-13T09:24:22.238Z,2.30
2022-09-13T09:26:49.065Z,9.13
2022-09-13T09:29:24.756Z,1.85
2022-09-13T09:32:12.068Z,3.50
2022-09-13T09:34:53.305Z,4.75
2022-09-13T09:37:21.741Z,9.38
2022-09-13T09:39:49.349Z,2.63
2022-09-13T09:42:19.477Z,5.30
2022-09-13T09:44:51.215Z,2.50
2022-09-13T09:47:19.988Z,2.03
2022-09-13T09:49:50.038Z,2.03
2022-09-13T09:52:21.112Z,1.38
2022-09-13T09:54:49.158Z,2.55
2022-09-13T09:57:16.186Z,4.13
2022-09-13T09:59:42.904Z,2.38
2022-09-13T10:02:17.460Z,1.50
2022-09-13T10:04:55.230Z,1.88
2022-09-13T10:07:27.806Z,8.60
2022-09-13T10:09:59.431Z,6.32
2022-09-13T10:12:28.014Z,2.42
2022-09-13T10:15:04.568Z,4.18
2022-09-13T10:17:32.600Z,4.43
2022-09-13T10:20:01.280Z,5.95
2022-09-13T10:22:29.800Z,14.50
2022-09-13T10:25:14.255Z,7.82
2022-09-13T10:27:47.632Z,4.80
2022-09-13T10:30:32.854Z,6.05
2022-09-13T10:33:01.911Z,6.53
2022-09-13T10:35:29.795Z,22.15
2022-09-13T10:37:56.471Z,20.60
2022-09-13T10:40:28.953Z,11.63
2022-09-13T10:42:57.854Z,8.98
2022-09-13T10:45:27.471Z,7.07
2022-09-13T10:47:57.990Z,12.55
2022-09-13T10:50:27.877Z,1.77
2022-09-13T10:52:55.152Z,5.82
2022-09-13T10:55:34.188Z,3.42
2022-09-13T10:58:19.513Z,5.13
2022-09-13T11:01:23.648Z,4.95
2022-09-13T11:04:19.472Z,6.53
2022-09-13T11:07:01.673Z,3.13
2022-09-13T11:09:36.694Z,4.65
2022-09-13T11:12:15.996Z,5.57
2022-09-13T11:14:59.480Z,17.27
2022-09-13T11:17:42.678Z,4.75
2022-09-13T11:20:23.850Z,2.25
2022-09-13T11:23:18.685Z,6.18
2022-09-13T11:25:56.889Z,3.72
2022-09-13T11:28:33.111Z,4.93
2022-09-13T11:31:25.680Z,6.28
2022-09-13T11:34:07.405Z,1.65
2022-09-13T11:36:58.960Z,3.25
2022-09-13T11:39:32.362Z,5.13
2022-09-13T11:42:14.437Z,3.58
2022-09-13T11:45:09.385Z,3.10
2022-09-13T11:47:48.564Z,7.75
2022-09-13T11:53:00.686Z,1.70
2022-09-13T11:55:33.513Z,4.30
2022-09-13T11:58:03.252Z,4.93
2022-09-13T12:00:34.751Z,4.18
2022-09-13T12:03:11.682Z,5.65
2022-09-13T12:05:43.223Z,2.67
2022-09-13T12:08:16.275Z,1.50
2022-09-13T12:10:50.929Z,3.50
2022-09-13T12:13:22.512Z,28.92
2022-09-13T12:15:53.220Z,6.72
2022-09-13T12:18:24.427Z,19.13
2022-09-13T12:20:54.968Z,2.10
2022-09-13T12:23:27.239Z,2.38
2022-09-13T12:26:00.546Z,19.95
2022-09-13T12:28:31.770Z,11.63
2022-09-13T12:31:02.240Z,2.45
2022-09-13T12:33:28.891Z,24.30
2022-09-13T12:36:31.152Z,14.50
2022-09-13T12:39:23.828Z,5.22
2022-09-13T12:42:08.312Z,6.45
2022-09-13T12:45:02.344Z,2.72
2022-09-13T12:47:50.205Z,2.40
2022-09-13T12:50:43.444Z,5.10
2022-09-13T12:53:36.819Z,2.10
2022-09-13T12:56:17.241Z,6.43
2022-09-13T12:59:04.317Z,2.90
2022-09-13T13:01:32.998Z,4.20
2022-09-13T13:04:04.169Z,2.17
2022-09-13T13:06:34.555Z,5.00
2022-09-13T13:09:05.795Z,2.38
2022-09-13T13:11:43.176Z,2.28
2022-09-13T13:14:28.863Z,3.33
2022-09-13T13:17:33.727Z,1.52
2022-09-13T13:20:00.426Z,8.65
2022-09-13T13:22:49.802Z,56.28
2022-09-13T13:25:34.758Z,18.52
2022-09-13T13:28:01.591Z,86.00
2022-09-13T13:30:50.878Z,86.53
2022-09-13T13:33:21.532Z,68.43
2022-09-13T13:35:48.776Z,19.13
2022-09-13T13:38:30.989Z,73.93
2022-09-13T13:41:10.860Z,11.88
2022-09-13T13:43:39.319Z,2.08
2022-09-13T13:46:31.415Z,16.02
2022-09-13T13:49:31.021Z,88.97
2022-09-13T13:52:30.686Z,73.65
2022-09-13T13:54:59.782Z,15.52
2022-09-13T13:59:57.595Z,4.38
2022-09-13T14:02:32.012Z,5.28
2022-09-13T14:05:08.132Z,7.35
2022-09-13T14:08:00.320Z,4.45
2022-09-13T14:10:33.144Z,2.42
2022-09-13T14:13:21.203Z,9.88
2022-09-13T14:15:55.930Z,2.15
2022-09-13T14:19:03.939Z,14.65
2022-09-13T14:21:32.233Z,133.57
2022-09-13T14:24:23.469Z,156.03
2022-09-13T14:26:52.897Z,45.00
2022-09-13T14:29:22.220Z,11.57
2022-09-13T14:31:50.629Z,11.43
2022-09-13T14:34:22.135Z,1.55
2022-09-13T14:36:54.856Z,2.83
2022-09-13T14:39:22.049Z,3.83
2022-09-13T14:41:57.532Z,3.47
2022-09-13T14:44:29.036Z,2.03
2022-09-13T14:47:04.079Z,4.57
2022-09-13T14:49:35.240Z,4.38
2022-09-13T14:52:07.712Z,15.40
2022-09-13T14:54:38.206Z,6.15
2022-09-13T14:57:08.391Z,9.93
2022-09-13T14:59:40.830Z,1.15
2022-09-13T15:02:18.115Z,3.97
2022-09-13T15:04:48.279Z,1.92
2022-09-13T15:07:23.027Z,12.90
2022-09-13T15:09:50.668Z,9.82
2022-09-13T15:12:25.683Z,4.80
2022-09-13T15:15:40.113Z,2.90
2022-09-13T15:18:24.780Z,3.40
2022-09-13T15:20:54.423Z,3.33
2022-09-13T15:23:24.809Z,2.22
2022-09-13T15:25:54.073Z,1.40
2022-09-13T15:28:24.297Z,1.27
2022-09-13T15:30:51.674Z,2.67
2022-09-13T15:33:24.623Z,4.63
2022-09-13T15:35:51.775Z,3.55
2022-09-13T15:38:24.899Z,9.13
2022-09-13T15:41:01.263Z,6.63
2022-09-13T15:43:28.272Z,7.15
2022-09-13T15:45:56.982Z,5.88
2022-09-13T15:48:27.760Z,6.65
2022-09-13T15:51:09.491Z,1.65
2022-09-13T15:53:38.542Z,4.55
2022-09-13T15:56:06.696Z,3.17
2022-09-13T15:58:34.357Z,5.77
2022-09-13T16:01:01.253Z,4.97
2022-09-13T16:03:28.456Z,5.97
2022-09-13T16:05:55.066Z,12.02
2022-09-13T16:08:21.861Z,1.52
2022-09-13T16:10:49.841Z,2.38
2022-09-13T16:13:16.454Z,2.22
2022-09-13T16:15:43.304Z,3.60
2022-09-13T16:18:10.497Z,6.20
2022-09-13T16:20:37.516Z,6.57
2022-09-13T16:23:04.130Z,7.47
2022-09-13T16:25:30.733Z,13.73
2022-09-13T16:27:58.712Z,6.60
2022-09-13T16:30:25.565Z,11.20
2022-09-13T16:32:52.151Z,6.80
2022-09-13T16:35:18.798Z,4.55
2022-09-13T16:37:45.404Z,12.07
2022-09-13T16:40:12.367Z,14.02
2022-09-13T16:42:39.065Z,17.50
2022-09-13T16:45:08.323Z,11.45
2022-09-13T16:47:35.042Z,12.27
2022-09-13T16:50:01.694Z,10.27
2022-09-13T16:52:28.607Z,6.40
2022-09-13T16:54:55.199Z,4.65
2022-09-13T16:57:21.900Z,6.57
2022-09-13T16:59:48.505Z,5.15
2022-09-13T17:02:16.650Z,7.50
2022-09-13T17:04:43.417Z,3.23
2022-09-13T17:07:10.051Z,4.55
2022-09-13T17:09:36.781Z,10.88
2022-09-13T17:12:04.042Z,4.53
2022-09-13T17:14:30.715Z,3.25
2022-09-13T17:16:57.725Z,5.60
2022-09-13T17:19:27.823Z,6.10
2022-09-13T17:21:54.430Z,3.33
2022-09-13T17:24:20.986Z,7.60
2022-09-13T17:26:47.574Z,4.50
2022-09-13T17:29:15.291Z,12.88
2022-09-13T17:31:42.764Z,3.83
2022-09-13T17:34:09.860Z,8.98
2022-09-13T17:36:38.480Z,6.38
2022-09-13T17:39:05.398Z,3.92
2022-09-13T17:41:32.146Z,5.03
2022-09-13T17:43:58.751Z,3.03
2022-09-13T17:46:27.339Z,2.92
2022-09-13T17:48:55.684Z,5.85
2022-09-13T17:51:23.996Z,4.03
2022-09-13T17:53:53.367Z,10.68
2022-09-13T17:56:21.562Z,6.22
2022-09-13T17:58:48.444Z,6.25
2022-09-13T18:01:15.931Z,14.23
2022-09-13T18:03:42.659Z,8.45
2022-09-13T18:06:10.916Z,5.18
2022-09-13T18:08:39.149Z,4.22
2022-09-13T18:11:13.978Z,3.92
2022-09-13T18:13:42.600Z,9.07
2022-09-13T18:16:12.118Z,16.08
2022-09-13T18:18:43.714Z,6.47
2022-09-13T18:21:10.802Z,8.38
2022-09-13T18:23:37.729Z,6.97
2022-09-13T18:26:10.794Z,5.90
2022-09-13T18:28:38.439Z,9.45
2022-09-13T18:31:07.210Z,7.72
2022-09-13T18:33:34.693Z,6.20
2022-09-13T18:36:03.479Z,7.72
2022-09-13T18:38:33.199Z,3.30
2022-09-13T18:41:02.415Z,3.20
2022-09-13T18:45:59.503Z,4.17
2022-09-13T18:48:29.304Z,4.55
2022-09-13T18:50:56.471Z,5.93
2022-09-13T18:53:34.367Z,6.38
2022-09-13T18:56:02.663Z,1.90
2022-09-13T18:58:31.485Z,3.47
2022-09-13T19:01:03.465Z,1.80
2022-09-13T19:03:30.328Z,4.55
2022-09-13T19:06:07.247Z,9.05
2022-09-13T19:08:33.895Z,3.55
2022-09-13T19:11:00.575Z,4.97
2022-09-13T19:13:28.922Z,5.78
2022-09-13T19:15:59.006Z,5.10
2022-09-13T19:18:26.293Z,9.35
2022-09-13T19:21:00.241Z,6.95
2022-09-13T19:23:43.004Z,3.25
2022-09-13T19:26:15.984Z,6.40
2022-09-13T19:28:47.340Z,4.78
2022-09-13T19:31:15.719Z,2.53
2022-09-13T19:33:42.639Z,5.00
2022-09-13T19:36:13.868Z,4.65
2022-09-13T19:38:41.512Z,10.95
2022-09-13T19:41:11.619Z,5.47
2022-09-13T19:43:39.517Z,8.90
2022-09-13T19:46:07.823Z,4.90
2022-09-13T19:48:39.600Z,7.57
2022-09-13T19:51:08.363Z,2.95
2022-09-13T19:53:55.956Z,5.50
2022-09-13T19:56:25.761Z,6.75
2022-09-13T20:01:21.688Z,3.15
2022-09-13T20:03:53.380Z,8.35
2022-09-13T20:06:20.412Z,4.18
2022-09-13T20:08:47.002Z,4.03
2022-09-13T20:11:14.953Z,2.70
2022-09-13T20:13:42.808Z,4.50
2022-09-13T20:16:10.673Z,3.97
2022-09-13T20:18:37.441Z,4.68
2022-09-13T20:21:07.262Z,3.67
2022-09-13T20:23:34.422Z,3.60
2022-09-13T20:26:01.167Z,3.55
2022-09-13T20:28:27.735Z,2.15
2022-09-13T20:30:55.301Z,2.97
2022-09-13T20:33:22.256Z,4.20
2022-09-13T20:35:49.211Z,5.38
2022-09-13T20:38:17.227Z,6.88
2022-09-13T20:40:43.839Z,2.35
2022-09-13T20:43:10.398Z,2.53
2022-09-13T20:45:36.970Z,2.55
2022-09-13T20:48:03.820Z,2.72
2022-09-13T20:50:30.409Z,3.40
2022-09-13T20:52:56.967Z,5.05
2022-09-13T20:55:25.292Z,3.47
2022-09-13T20:57:51.857Z,2.85
2022-09-13T21:00:18.548Z,2.80
2022-09-13T21:02:45.280Z,7.65
2022-09-13T21:05:12.168Z,5.10
2022-09-13T21:07:38.738Z,2.85
2022-09-13T21:10:06.384Z,3.40
2022-09-13T21:12:34.324Z,2.72
2022-09-13T21:15:00.936Z,2.58
2022-09-13T21:17:27.604Z,3.72
2022-09-13T21:19:54.213Z,5.00
2022-09-13T21:22:20.798Z,2.92
2022-09-13T21:24:47.370Z,3.78
2022-09-13T21:27:13.938Z,8.35
2022-09-13T21:29:41.878Z,2.63
2022-09-13T21:32:08.851Z,2.63
2022-09-13T21:34:35.461Z,2.53
2022-09-13T21:37:02.025Z,3.55
2022-09-13T21:39:29.654Z,4.40
2022-09-13T21:41:56.233Z,1.63
2022-09-13T21:44:22.824Z,4.97
2022-09-13T21:46:50.770Z,8.23
2022-09-13T21:49:17.356Z,1.95
2022-09-13T21:51:45.340Z,2.67
2022-09-13T21:54:14.270Z,2.78
2022-09-13T21:56:42.600Z,4.85
2022-09-13T21:59:12.420Z,2.40
2022-09-13T22:01:40.381Z,3.72
2022-09-13T22:04:10.210Z,4.60
2022-09-13T22:06:36.778Z,2.05
2022-09-13T22:09:06.147Z,2.00
2022-09-13T22:14:00.862Z,4.10
2022-09-13T22:16:29.267Z,5.43
2022-09-13T22:18:58.681Z,6.90
2022-09-13T22:23:54.612Z,4.47
2022-09-13T22:26:25.076Z,2.70
2022-09-13T22:28:53.085Z,4.40
2022-09-13T22:31:21.233Z,6.40
2022-09-13T22:33:48.526Z,5.57
2022-09-13T22:36:16.874Z,2.83
2022-09-13T22:38:48.667Z,2.17
2022-09-13T22:41:20.295Z,2.13
2022-09-13T22:46:15.986Z,5.03
2022-09-13T22:48:43.019Z,3.42
2022-09-13T22:51:11.594Z,1.65
2022-09-13T22:53:39.681Z,2.47
2022-09-13T22:56:10.838Z,4.85
2022-09-13T22:58:37.723Z,4.82
2022-09-13T23:01:06.317Z,6.15
2022-09-13T23:03:34.423Z,3.42
2022-09-13T23:06:01.075Z,5.88
2022-09-13T23:08:27.887Z,3.33
2022-09-13T23:10:54.981Z,2.08
2022-09-13T23:13:23.663Z,2.80
2022-09-13T23:15:50.296Z,3.08
2022-09-13T23:18:16.949Z,4.57
2022-09-13T23:20:43.849Z,3.00
2022-09-13T23:23:11.136Z,5.13
2022-09-13T23:25:37.779Z,2.60
2022-09-13T23:28:04.382Z,2.45
2022-09-13T23:30:32.350Z,2.33
2022-09-13T23:32:58.926Z,3.67
2022-09-13T23:35:25.524Z,2.92
2022-09-13T23:37:52.117Z,3.33
2022-09-13T23:40:18.727Z,4.00
2022-09-13T23:42:45.333Z,4.03
2022-09-13T23:45:11.945Z,1.85
2022-09-13T23:47:39.917Z,3.17
2022-09-13T23:50:07.231Z,4.07
2022-09-13T23:52:33.872Z,2.30
2022-09-13T23:55:00.436Z,2.47
2022-09-13T23:57:27.106Z,5.75
2022-09-13T23:59:53.696Z,3.35
